createdAt,value
2023-03-20T00:01:02.304Z,99.90
2023-03-20T00:06:04.091Z,99.90
2023-03-20T00:11:05.997Z,99.90
2023-03-20T00:16:08.032Z,99.90
2023-03-20T00:21:17.736Z,99.90
2023-03-20T00:26:19.741Z,99.90
2023-03-20T00:31:25.347Z,99.90
2023-03-20T00:36:28.019Z,99.90
2023-03-20T00:41:32.364Z,99.90
2023-03-20T00:46:38.561Z,99.90
2023-03-20T00:51:40.278Z,99.90
2023-03-20T00:57:02.478Z,99.90
2023-03-20T01:02:04.813Z,99.90
2023-03-20T01:07:07.509Z,99.90
2023-03-20T01:12:12.338Z,99.90
2023-03-20T01:17:19.392Z,99.90
2023-03-20T01:22:21.126Z,99.90
2023-03-20T01:27:23.624Z,99.90
2023-03-20T01:32:25.388Z,99.90
2023-03-20T01:37:28.181Z,99.90
2023-03-20T01:42:30.397Z,99.90
2023-03-20T01:47:32.595Z,99.90
2023-03-20T01:52:34.338Z,99.90
2023-03-20T01:57:37.531Z,99.90
2023-03-20T02:02:41.031Z,99.90
2023-03-20T02:07:49.493Z,99.90
2023-03-20T02:12:52.134Z,99.90
2023-03-20T02:17:54.025Z,99.90
2023-03-20T02:23:07.786Z,99.90
2023-03-20T02:28:22.768Z,99.90
2023-03-20T02:34:00.511Z,99.90
2023-03-20T02:39:40.473Z,99.90
2023-03-20T02:45:01.802Z,99.90
2023-03-20T02:50:39.211Z,99.90
2023-03-20T02:56:06.651Z,99.90
2023-03-20T03:01:30.915Z,99.90
2023-03-20T03:06:36.634Z,99.90
2023-03-20T03:11:42.321Z,99.90
2023-03-20T03:16:45.701Z,99.90
2023-03-20T03:21:48.632Z,99.90
2023-03-20T03:26:51.723Z,99.90
2023-03-20T03:31:54.207Z,99.90
2023-03-20T03:36:58.662Z,99.90
2023-03-20T03:42:24.442Z,99.90
2023-03-20T03:47:35.323Z,99.90
2023-03-20T03:52:38.916Z,99.90
2023-03-20T03:57:47.971Z,99.90
2023-03-20T04:02:53.713Z,99.90
2023-03-20T04:07:58.586Z,99.90
2023-03-20T04:13:00.368Z,99.90
2023-03-20T04:18:02.238Z,99.90
2023-03-20T04:23:05.637Z,99.90
2023-03-20T04:28:07.516Z,99.90
2023-03-20T04:33:09.372Z,99.90
2023-03-20T04:38:11.847Z,99.90
2023-03-20T04:43:15.082Z,99.90
2023-03-20T04:48:16.837Z,99.90
2023-03-20T04:53:18.711Z,99.90
2023-03-20T04:58:20.598Z,99.90
2023-03-20T05:03:24.059Z,99.90
2023-03-20T05:08:26.100Z,99.90
2023-03-20T05:13:27.811Z,99.90
2023-03-20T05:18:29.531Z,99.90
2023-03-20T05:23:31.323Z,99.90
2023-03-20T05:28:33.188Z,99.90
2023-03-20T05:33:37.648Z,99.90
2023-03-20T05:38:39.844Z,99.90
2023-03-20T05:43:41.555Z,99.90
2023-03-20T05:48:43.230Z,99.90
2023-03-20T05:53:44.920Z,99.90
2023-03-20T05:58:46.661Z,99.90
2023-03-20T06:03:49.104Z,99.90
2023-03-20T06:08:51.104Z,99.90
2023-03-20T06:13:55.674Z,99.90
2023-03-20T06:18:58.296Z,99.90
2023-03-20T06:24:00.104Z,99.90
2023-03-20T06:29:02.220Z,99.90
2023-03-20T06:34:04.763Z,99.90
2023-03-20T06:39:06.499Z,99.90
2023-03-20T06:44:08.248Z,99.90
2023-03-20T06:49:10.169Z,99.90
2023-03-20T06:54:11.866Z,99.90
2023-03-20T06:59:13.985Z,99.90
2023-03-20T07:04:15.822Z,99.90
2023-03-20T07:09:17.960Z,99.90
2023-03-20T07:14:19.960Z,99.90
2023-03-20T07:19:22.166Z,99.90
2023-03-20T07:24:23.837Z,99.90
2023-03-20T07:29:25.819Z,99.90
2023-03-20T07:34:27.533Z,99.90
2023-03-20T07:39:29.281Z,99.90
2023-03-20T07:44:31.031Z,99.90
2023-03-20T07:49:33.423Z,99.90
2023-03-20T07:54:35.396Z,99.90
2023-03-20T07:59:37.147Z,99.90
2023-03-20T08:04:38.963Z,99.90
2023-03-20T08:09:40.979Z,99.90
2023-03-20T08:14:44.108Z,99.90
2023-03-20T08:19:46.017Z,99.90
2023-03-20T08:24:47.779Z,99.90
2023-03-20T08:29:49.502Z,99.90
2023-03-20T08:34:51.175Z,99.90
2023-03-20T08:39:52.893Z,99.90
2023-03-20T08:44:54.624Z,99.90
2023-03-20T08:49:56.606Z,99.90
2023-03-20T08:54:58.586Z,99.90
2023-03-20T09:00:01.510Z,99.90
2023-03-20T09:05:03.433Z,99.90
2023-03-20T09:10:06.085Z,99.90
2023-03-20T09:15:08.368Z,99.90
2023-03-20T09:20:10.763Z,99.90
2023-03-20T09:25:13.299Z,99.90
2023-03-20T09:30:15.292Z,99.90
2023-03-20T09:35:17.365Z,99.90
2023-03-20T09:40:33.990Z,99.90
2023-03-20T09:46:11.586Z,99.90
2023-03-20T09:51:28.545Z,99.90
2023-03-20T09:56:31.416Z,99.90
2023-03-20T10:01:49.040Z,99.90
2023-03-20T10:06:50.906Z,99.90
2023-03-20T10:12:14.652Z,99.90
2023-03-20T10:17:39.119Z,99.90
2023-03-20T10:22:53.355Z,99.30
2023-03-20T10:28:05.507Z,95.20
2023-03-20T10:33:34.540Z,95.80
2023-03-20T10:39:01.386Z,99.10
2023-03-20T10:44:04.858Z,99.90
2023-03-20T10:49:18.463Z,99.90
2023-03-20T10:54:36.762Z,99.90
2023-03-20T10:59:42.192Z,99.90
2023-03-20T11:04:44.665Z,97.30
2023-03-20T11:09:46.473Z,95.30
2023-03-20T11:14:48.245Z,96.60
2023-03-20T11:19:51.561Z,95.90
2023-03-20T11:24:59.006Z,96.60
2023-03-20T11:30:03.981Z,97.40
2023-03-20T11:35:27.564Z,96.90
2023-03-20T11:40:33.987Z,95.80
2023-03-20T11:45:38.466Z,97.30
2023-03-20T11:50:49.080Z,98.50
2023-03-20T11:56:08.186Z,98.20
2023-03-20T12:01:12.635Z,98.40
2023-03-20T12:06:17.901Z,98.80
2023-03-20T12:11:41.365Z,98.40
2023-03-20T12:16:45.720Z,97.90
2023-03-20T12:22:17.919Z,96.50
2023-03-20T12:27:34.684Z,97.00
2023-03-20T12:32:40.310Z,95.90
2023-03-20T12:37:42.060Z,95.80
2023-03-20T12:43:01.469Z,95.10
2023-03-20T12:48:11.110Z,95.00
2023-03-20T12:53:31.893Z,92.40
2023-03-20T12:59:15.612Z,92.70
2023-03-20T13:04:45.999Z,92.70
2023-03-20T13:09:57.331Z,92.90
2023-03-20T13:15:20.145Z,92.50
2023-03-20T13:20:49.097Z,91.60
2023-03-20T13:25:57.004Z,92.00
2023-03-20T13:31:26.095Z,92.20
2023-03-20T13:36:51.867Z,92.10
2023-03-20T13:41:55.114Z,92.10
2023-03-20T13:47:07.084Z,91.30
2023-03-20T13:52:11.566Z,91.10
2023-03-20T13:57:22.244Z,90.50
2023-03-20T14:02:46.339Z,91.80
2023-03-20T14:07:49.680Z,92.90
2023-03-20T14:12:55.360Z,93.60
2023-03-20T14:17:57.515Z,92.60
2023-03-20T14:22:59.690Z,92.40
2023-03-20T14:28:10.849Z,91.60
2023-03-20T14:33:18.855Z,91.40
2023-03-20T14:38:35.986Z,92.10
2023-03-20T14:43:56.812Z,91.50
2023-03-20T14:49:04.731Z,91.80
2023-03-20T14:54:21.445Z,91.10
2023-03-20T14:59:24.682Z,91.50
2023-03-20T15:04:28.891Z,91.10
2023-03-20T15:09:34.643Z,91.00
2023-03-20T15:14:59.077Z,90.40
2023-03-20T15:20:18.536Z,87.20
2023-03-20T15:25:22.607Z,86.90
2023-03-20T15:30:25.309Z,88.40
2023-03-20T15:35:27.893Z,90.00
2023-03-20T15:40:43.738Z,88.70
2023-03-20T15:46:02.945Z,89.10
2023-03-20T15:51:10.787Z,87.70
2023-03-20T15:56:18.626Z,87.80
2023-03-20T16:01:22.834Z,87.50
2023-03-20T16:06:25.613Z,89.00
2023-03-20T16:11:37.282Z,88.50
2023-03-20T16:16:39.541Z,87.50
2023-03-20T16:21:47.474Z,88.40
2023-03-20T16:26:52.219Z,88.90
2023-03-20T16:32:26.805Z,90.00
2023-03-20T16:37:31.793Z,89.10
2023-03-20T16:42:33.636Z,89.90
2023-03-20T16:47:38.375Z,91.00
2023-03-20T16:52:49.621Z,91.50
2023-03-20T16:57:54.303Z,91.90
2023-03-20T17:03:24.577Z,92.40
2023-03-20T17:08:28.442Z,93.20
2023-03-20T17:13:30.191Z,93.60
2023-03-20T17:18:32.118Z,93.50
2023-03-20T17:23:33.998Z,94.70
2023-03-20T17:28:37.199Z,95.90
2023-03-20T17:33:39.008Z,97.10
2023-03-20T17:38:41.142Z,98.50
2023-03-20T17:43:43.336Z,99.70
2023-03-20T17:48:46.387Z,99.90
2023-03-20T17:53:48.123Z,99.90
2023-03-20T17:58:50.642Z,99.90
2023-03-20T18:03:52.911Z,99.90
2023-03-20T18:08:56.051Z,99.90
2023-03-20T18:13:57.799Z,99.90
2023-03-20T18:19:01.398Z,99.90
2023-03-20T18:24:03.322Z,99.90
2023-03-20T18:29:05.054Z,99.90
2023-03-20T18:34:07.020Z,99.90
2023-03-20T18:39:08.927Z,99.90
2023-03-20T18:44:10.704Z,99.90
2023-03-20T18:49:17.235Z,99.90
2023-03-20T18:54:18.993Z,99.90
2023-03-20T18:59:20.716Z,99.90
2023-03-20T19:04:23.478Z,99.90
2023-03-20T19:09:25.352Z,99.90
2023-03-20T19:14:28.454Z,99.90
2023-03-20T19:19:30.165Z,99.90
2023-03-20T19:24:31.930Z,99.90
2023-03-20T19:29:34.060Z,99.90
2023-03-20T19:39:57.692Z,99.90
2023-03-20T19:44:59.457Z,99.90
2023-03-20T19:50:01.450Z,99.90
2023-03-20T19:55:03.874Z,99.90
2023-03-20T20:00:54.691Z,99.90
2023-03-20T20:05:37.257Z,99.90
2023-03-20T20:10:42.426Z,99.90
2023-03-20T20:15:45.384Z,99.90
2023-03-20T20:21:37.555Z,99.90
2023-03-20T20:26:12.118Z,99.90
2023-03-20T20:31:13.828Z,99.90
2023-03-20T20:41:38.304Z,99.90
2023-03-20T20:46:40.223Z,99.90
2023-03-20T20:51:42.002Z,99.90
2023-03-20T20:56:43.714Z,99.90
2023-03-20T21:01:46.234Z,99.90
2023-03-20T21:07:08.646Z,99.90
2023-03-20T21:12:30.515Z,99.90
2023-03-20T21:17:34.627Z,99.90
2023-03-20T21:22:37.409Z,99.90
2023-03-20T21:27:39.229Z,99.90
2023-03-20T21:32:40.997Z,99.90
2023-03-20T21:38:37.901Z,99.90
2023-03-20T21:43:05.865Z,99.90
2023-03-20T21:59:34.833Z,99.90
2023-03-20T22:32:18.271Z,99.90
2023-03-20T22:47:24.179Z,99.90
2023-03-20T22:52:37.865Z,99.90
2023-03-20T22:57:47.767Z,99.90
2023-03-20T23:03:13.819Z,99.90
2023-03-20T23:08:17.772Z,99.90
2023-03-20T23:13:20.453Z,99.90
2023-03-20T23:18:22.175Z,99.90
2023-03-20T23:23:24.401Z,99.90
2023-03-20T23:28:26.089Z,99.90
2023-03-20T23:33:27.893Z,99.90
2023-03-20T23:38:29.859Z,99.90
2023-03-20T23:43:31.728Z,99.90
2023-03-20T23:48:34.873Z,99.90
2023-03-20T23:53:36.701Z,99.90
2023-03-20T23:58:41.937Z,99.90
